sensor_id;sensor_type;location;lat;lon;timestamp;temperature;humidity
76577;DHT22;65441;44.748;37.600;2023-10-31T00:00:27;10.20;81.81
76577;DHT22;65441;44.748;37.600;2023-10-31T00:02:56;10.31;81.88
76577;DHT22;65441;44.748;37.600;2023-10-31T00:05:25;10.34;81.59
76577;DHT22;65441;44.748;37.600;2023-10-31T00:07:53;10.27;81.16
76577;DHT22;65441;44.748;37.600;2023-10-31T00:10:21;10.29;80.28
76577;DHT22;65441;44.748;37.600;2023-10-31T00:12:49;10.27;80.17
76577;DHT22;65441;44.748;37.600;2023-10-31T00:15:17;10.28;80.02
76577;DHT22;65441;44.748;37.600;2023-10-31T00:17:46;10.37;79.72
76577;DHT22;65441;44.748;37.600;2023-10-31T00:20:14;10.40;80.10
76577;DHT22;65441;44.748;37.600;2023-10-31T00:22:44;10.36;80.30
76577;DHT22;65441;44.748;37.600;2023-10-31T00:25:12;10.26;80.37
76577;DHT22;65441;44.748;37.600;2023-10-31T00:27:40;10.04;81.81
76577;DHT22;65441;44.748;37.600;2023-10-31T00:30:08;10.00;80.91
76577;DHT22;65441;44.748;37.600;2023-10-31T00:32:36;10.07;80.03
76577;DHT22;65441;44.748;37.600;2023-10-31T00:35:05;10.12;80.62
76577;DHT22;65441;44.748;37.600;2023-10-31T00:37:33;10.20;81.13
76577;DHT22;65441;44.748;37.600;2023-10-31T00:40:03;10.14;81.39
76577;DHT22;65441;44.748;37.600;2023-10-31T00:42:31;10.13;80.58
76577;DHT22;65441;44.748;37.600;2023-10-31T00:44:59;10.08;80.71
76577;DHT22;65441;44.748;37.600;2023-10-31T00:47:27;9.91;81.40
76577;DHT22;65441;44.748;37.600;2023-10-31T00:49:56;9.88;82.05
76577;DHT22;65441;44.748;37.600;2023-10-31T00:52:24;9.88;82.06
76577;DHT22;65441;44.748;37.600;2023-10-31T00:54:52;9.90;82.24
76577;DHT22;65441;44.748;37.600;2023-10-31T00:57:23;9.88;82.25
76577;DHT22;65441;44.748;37.600;2023-10-31T00:59:51;9.93;79.97
76577;DHT22;65441;44.748;37.600;2023-10-31T01:02:19;9.89;81.23
76577;DHT22;65441;44.748;37.600;2023-10-31T01:04:47;9.88;81.90
76577;DHT22;65441;44.748;37.600;2023-10-31T01:07:15;9.81;80.81
76577;DHT22;65441;44.748;37.600;2023-10-31T01:09:44;9.69;80.20
76577;DHT22;65441;44.748;37.600;2023-10-31T01:12:12;9.59;80.52
76577;DHT22;65441;44.748;37.600;2023-10-31T01:14:42;9.47;81.06
76577;DHT22;65441;44.748;37.600;2023-10-31T01:17:10;9.36;81.59
76577;DHT22;65441;44.748;37.600;2023-10-31T01:19:38;9.36;81.33
76577;DHT22;65441;44.748;37.600;2023-10-31T01:22:06;9.24;82.35
76577;DHT22;65441;44.748;37.600;2023-10-31T01:24:35;9.26;82.64
76577;DHT22;65441;44.748;37.600;2023-10-31T01:27:03;9.32;82.58
76577;DHT22;65441;44.748;37.600;2023-10-31T01:29:31;9.38;81.26
76577;DHT22;65441;44.748;37.600;2023-10-31T01:32:01;9.47;82.06
76577;DHT22;65441;44.748;37.600;2023-10-31T01:34:29;9.42;82.42
76577;DHT22;65441;44.748;37.600;2023-10-31T01:36:57;9.37;82.81
76577;DHT22;65441;44.748;37.600;2023-10-31T01:39:25;9.46;82.12
76577;DHT22;65441;44.748;37.600;2023-10-31T01:41:53;9.49;82.55
76577;DHT22;65441;44.748;37.600;2023-10-31T01:44:22;9.39;82.77
76577;DHT22;65441;44.748;37.600;2023-10-31T01:46:51;9.55;82.82
76577;DHT22;65441;44.748;37.600;2023-10-31T01:49:23;9.52;84.39
76577;DHT22;65441;44.748;37.600;2023-10-31T01:51:51;9.62;82.71
76577;DHT22;65441;44.748;37.600;2023-10-31T01:54:20;9.62;81.52
76577;DHT22;65441;44.748;37.600;2023-10-31T01:56:48;9.71;83.84
76577;DHT22;65441;44.748;37.600;2023-10-31T01:59:17;9.71;82.36
76577;DHT22;65441;44.748;37.600;2023-10-31T02:01:45;9.75;82.82
76577;DHT22;65441;44.748;37.600;2023-10-31T02:04:13;9.64;82.10
76577;DHT22;65441;44.748;37.600;2023-10-31T02:06:43;9.68;82.56
76577;DHT22;65441;44.748;37.600;2023-10-31T02:09:11;9.71;82.78
76577;DHT22;65441;44.748;37.600;2023-10-31T02:11:39;9.70;82.37
76577;DHT22;65441;44.748;37.600;2023-10-31T02:14:07;9.72;81.44
76577;DHT22;65441;44.748;37.600;2023-10-31T02:16:36;9.69;81.33
76577;DHT22;65441;44.748;37.600;2023-10-31T02:19:06;9.71;82.09
76577;DHT22;65441;44.748;37.600;2023-10-31T02:21:39;9.71;79.99
76577;DHT22;65441;44.748;37.600;2023-10-31T02:24:07;9.70;81.55
76577;DHT22;65441;44.748;37.600;2023-10-31T02:26:35;9.55;83.26
76577;DHT22;65441;44.748;37.600;2023-10-31T02:29:03;9.37;86.90
76577;DHT22;65441;44.748;37.600;2023-10-31T02:31:34;9.44;88.01
76577;DHT22;65441;44.748;37.600;2023-10-31T02:34:03;9.70;88.14
76577;DHT22;65441;44.748;37.600;2023-10-31T02:36:31;9.89;86.78
76577;DHT22;65441;44.748;37.600;2023-10-31T02:39:01;10.08;87.12
76577;DHT22;65441;44.748;37.600;2023-10-31T02:41:30;10.16;86.37
76577;DHT22;65441;44.748;37.600;2023-10-31T02:43:57;10.16;81.48
76577;DHT22;65441;44.748;37.600;2023-10-31T02:46:26;10.25;83.20
76577;DHT22;65441;44.748;37.600;2023-10-31T02:48:54;10.16;83.32
76577;DHT22;65441;44.748;37.600;2023-10-31T02:51:22;10.03;84.10
76577;DHT22;65441;44.748;37.600;2023-10-31T02:53:50;10.00;80.92
76577;DHT22;65441;44.748;37.600;2023-10-31T02:56:20;9.85;83.97
76577;DHT22;65441;44.748;37.600;2023-10-31T02:58:48;9.69;83.61
76577;DHT22;65441;44.748;37.600;2023-10-31T03:01:16;9.55;85.63
76577;DHT22;65441;44.748;37.600;2023-10-31T03:03:46;9.63;82.08
76577;DHT22;65441;44.748;37.600;2023-10-31T03:06:14;9.54;83.31
76577;DHT22;65441;44.748;37.600;2023-10-31T03:08:42;9.49;83.13
76577;DHT22;65441;44.748;37.600;2023-10-31T03:11:22;9.38;81.43
76577;DHT22;65441;44.748;37.600;2023-10-31T03:13:50;9.24;82.39
76577;DHT22;65441;44.748;37.600;2023-10-31T03:16:19;9.21;82.59
76577;DHT22;65441;44.748;37.600;2023-10-31T03:18:48;9.14;82.74
76577;DHT22;65441;44.748;37.600;2023-10-31T03:21:16;9.08;81.72
76577;DHT22;65441;44.748;37.600;2023-10-31T03:23:47;9.10;81.94
76577;DHT22;65441;44.748;37.600;2023-10-31T03:26:15;9.14;82.30
76577;DHT22;65441;44.748;37.600;2023-10-31T03:28:48;8.94;81.85
76577;DHT22;65441;44.748;37.600;2023-10-31T03:31:16;8.77;83.16
76577;DHT22;65441;44.748;37.600;2023-10-31T03:33:44;8.91;83.63
76577;DHT22;65441;44.748;37.600;2023-10-31T03:36:13;9.02;83.74
76577;DHT22;65441;44.748;37.600;2023-10-31T03:38:41;8.95;82.12
76577;DHT22;65441;44.748;37.600;2023-10-31T03:41:09;9.02;81.75
76577;DHT22;65441;44.748;37.600;2023-10-31T03:43:37;8.92;83.26
76577;DHT22;65441;44.748;37.600;2023-10-31T03:46:06;8.93;82.78
76577;DHT22;65441;44.748;37.600;2023-10-31T03:48:34;8.94;82.49
76577;DHT22;65441;44.748;37.600;2023-10-31T03:51:03;8.79;83.26
76577;DHT22;65441;44.748;37.600;2023-10-31T03:53:31;8.89;83.30
76577;DHT22;65441;44.748;37.600;2023-10-31T03:55:59;8.78;83.66
76577;DHT22;65441;44.748;37.600;2023-10-31T03:58:28;8.89;83.03
76577;DHT22;65441;44.748;37.600;2023-10-31T04:00:56;8.90;84.28
76577;DHT22;65441;44.748;37.600;2023-10-31T04:03:26;9.00;84.50
76577;DHT22;65441;44.748;37.600;2023-10-31T04:05:54;9.01;82.75
76577;DHT22;65441;44.748;37.600;2023-10-31T04:08:22;9.06;82.79
76577;DHT22;65441;44.748;37.600;2023-10-31T04:10:50;9.05;83.00
76577;DHT22;65441;44.748;37.600;2023-10-31T04:13:18;9.11;80.75
76577;DHT22;65441;44.748;37.600;2023-10-31T04:15:47;9.07;81.52
76577;DHT22;65441;44.748;37.600;2023-10-31T04:18:15;9.05;80.29
76577;DHT22;65441;44.748;37.600;2023-10-31T04:20:44;9.12;82.41
76577;DHT22;65441;44.748;37.600;2023-10-31T04:23:12;9.75;96.49
76577;DHT22;65441;44.748;37.600;2023-10-31T04:25:41;10.59;98.16
76577;DHT22;65441;44.748;37.600;2023-10-31T04:28:09;11.79;100.77
76577;DHT22;65441;44.748;37.600;2023-10-31T04:30:37;11.83;95.07
76577;DHT22;65441;44.748;37.600;2023-10-31T04:33:05;12.32;91.01
76577;DHT22;65441;44.748;37.600;2023-10-31T04:35:33;13.11;91.56
76577;DHT22;65441;44.748;37.600;2023-10-31T04:38:02;13.07;79.36
76577;DHT22;65441;44.748;37.600;2023-10-31T04:40:30;13.38;92.63
76577;DHT22;65441;44.748;37.600;2023-10-31T04:42:58;14.10;87.83
76577;DHT22;65441;44.748;37.600;2023-10-31T04:45:26;14.48;83.98
76577;DHT22;65441;44.748;37.600;2023-10-31T04:47:54;14.68;80.78
76577;DHT22;65441;44.748;37.600;2023-10-31T04:50:23;14.71;70.98
76577;DHT22;65441;44.748;37.600;2023-10-31T04:52:51;15.16;78.46
76577;DHT22;65441;44.748;37.600;2023-10-31T04:55:20;15.54;69.91
76577;DHT22;65441;44.748;37.600;2023-10-31T04:57:48;16.00;66.20
76577;DHT22;65441;44.748;37.600;2023-10-31T05:00:17;16.65;67.75
76577;DHT22;65441;44.748;37.600;2023-10-31T05:02:45;16.95;59.32
76577;DHT22;65441;44.748;37.600;2023-10-31T05:05:15;17.09;68.36
76577;DHT22;65441;44.748;37.600;2023-10-31T05:07:43;17.43;63.02
76577;DHT22;65441;44.748;37.600;2023-10-31T05:10:11;18.15;58.58
76577;DHT22;65441;44.748;37.600;2023-10-31T05:12:40;18.57;59.26
76577;DHT22;65441;44.748;37.600;2023-10-31T05:15:09;18.80;55.91
76577;DHT22;65441;44.748;37.600;2023-10-31T05:17:38;18.54;56.22
76577;DHT22;65441;44.748;37.600;2023-10-31T05:20:06;18.37;59.75
76577;DHT22;65441;44.748;37.600;2023-10-31T05:22:36;17.93;61.63
76577;DHT22;65441;44.748;37.600;2023-10-31T05:25:04;18.78;64.03
76577;DHT22;65441;44.748;37.600;2023-10-31T05:27:33;19.62;61.73
76577;DHT22;65441;44.748;37.600;2023-10-31T05:30:02;19.20;58.93
76577;DHT22;65441;44.748;37.600;2023-10-31T05:32:31;19.66;60.80
76577;DHT22;65441;44.748;37.600;2023-10-31T05:35:00;20.28;59.83
76577;DHT22;65441;44.748;37.600;2023-10-31T05:37:28;21.38;55.58
76577;DHT22;65441;44.748;37.600;2023-10-31T05:39:56;22.07;53.07
76577;DHT22;65441;44.748;37.600;2023-10-31T05:42:24;22.57;49.13
76577;DHT22;65441;44.748;37.600;2023-10-31T05:44:54;23.15;50.29
76577;DHT22;65441;44.748;37.600;2023-10-31T05:47:24;23.43;48.09
76577;DHT22;65441;44.748;37.600;2023-10-31T05:49:54;23.85;45.66
76577;DHT22;65441;44.748;37.600;2023-10-31T05:52:22;24.27;44.62
76577;DHT22;65441;44.748;37.600;2023-10-31T05:54:50;24.30;44.33
76577;DHT22;65441;44.748;37.600;2023-10-31T05:57:18;24.64;46.35
76577;DHT22;65441;44.748;37.600;2023-10-31T05:59:46;25.00;46.73
76577;DHT22;65441;44.748;37.600;2023-10-31T06:02:14;25.01;46.00
76577;DHT22;65441;44.748;37.600;2023-10-31T06:04:44;25.22;46.22
76577;DHT22;65441;44.748;37.600;2023-10-31T06:07:12;25.34;46.33
76577;DHT22;65441;44.748;37.600;2023-10-31T06:09:40;25.82;45.77
76577;DHT22;65441;44.748;37.600;2023-10-31T06:12:08;26.02;44.31
76577;DHT22;65441;44.748;37.600;2023-10-31T06:14:37;26.22;41.47
76577;DHT22;65441;44.748;37.600;2023-10-31T06:17:05;26.22;42.32
76577;DHT22;65441;44.748;37.600;2023-10-31T06:19:34;26.02;43.34
76577;DHT22;65441;44.748;37.600;2023-10-31T06:22:04;25.43;44.21
76577;DHT22;65441;44.748;37.600;2023-10-31T06:24:32;25.07;49.16
76577;DHT22;65441;44.748;37.600;2023-10-31T06:27:00;24.87;43.50
76577;DHT22;65441;44.748;37.600;2023-10-31T06:29:29;25.23;40.07
76577;DHT22;65441;44.748;37.600;2023-10-31T06:31:57;25.30;45.21
76577;DHT22;65441;44.748;37.600;2023-10-31T06:34:25;24.57;42.51
76577;DHT22;65441;44.748;37.600;2023-10-31T06:36:53;24.28;43.58
76577;DHT22;65441;44.748;37.600;2023-10-31T06:39:23;23.90;47.09
76577;DHT22;65441;44.748;37.600;2023-10-31T06:41:54;23.80;43.19
76577;DHT22;65441;44.748;37.600;2023-10-31T06:44:23;23.86;42.70
76577;DHT22;65441;44.748;37.600;2023-10-31T06:46:51;23.82;46.52
76577;DHT22;65441;44.748;37.600;2023-10-31T06:49:19;24.04;48.44
76577;DHT22;65441;44.748;37.600;2023-10-31T06:51:49;24.17;47.15
76577;DHT22;65441;44.748;37.600;2023-10-31T06:54:17;24.38;42.19
76577;DHT22;65441;44.748;37.600;2023-10-31T06:56:46;24.66;46.39
76577;DHT22;65441;44.748;37.600;2023-10-31T06:59:14;24.86;43.46
76577;DHT22;65441;44.748;37.600;2023-10-31T07:01:42;25.25;46.08
76577;DHT22;65441;44.748;37.600;2023-10-31T07:04:11;25.63;41.48
76577;DHT22;65441;44.748;37.600;2023-10-31T07:06:40;25.81;37.72
76577;DHT22;65441;44.748;37.600;2023-10-31T07:09:08;26.01;39.56
76577;DHT22;65441;44.748;37.600;2023-10-31T07:11:36;26.22;40.02
76577;DHT22;65441;44.748;37.600;2023-10-31T07:14:05;26.22;39.25
76577;DHT22;65441;44.748;37.600;2023-10-31T07:16:34;26.27;38.89
76577;DHT22;65441;44.748;37.600;2023-10-31T07:19:02;26.46;33.76
76577;DHT22;65441;44.748;37.600;2023-10-31T07:21:30;26.54;33.16
76577;DHT22;65441;44.748;37.600;2023-10-31T07:23:58;26.69;41.33
76577;DHT22;65441;44.748;37.600;2023-10-31T07:26:26;27.08;39.49
76577;DHT22;65441;44.748;37.600;2023-10-31T07:28:54;27.32;35.79
76577;DHT22;65441;44.748;37.600;2023-10-31T07:31:24;27.66;37.18
76577;DHT22;65441;44.748;37.600;2023-10-31T07:33:52;27.94;35.54
76577;DHT22;65441;44.748;37.600;2023-10-31T07:36:20;28.08;29.03
76577;DHT22;65441;44.748;37.600;2023-10-31T07:38:48;28.12;36.86
76577;DHT22;65441;44.748;37.600;2023-10-31T07:41:16;28.16;34.65
76577;DHT22;65441;44.748;37.600;2023-10-31T07:43:44;28.56;35.32
76577;DHT22;65441;44.748;37.600;2023-10-31T07:46:12;28.62;30.61
76577;DHT22;65441;44.748;37.600;2023-10-31T07:48:42;28.52;31.98
76577;DHT22;65441;44.748;37.600;2023-10-31T07:51:10;28.72;33.99
76577;DHT22;65441;44.748;37.600;2023-10-31T07:53:38;29.01;32.57
76577;DHT22;65441;44.748;37.600;2023-10-31T07:56:14;29.32;31.53
76577;DHT22;65441;44.748;37.600;2023-10-31T07:58:45;29.54;32.70
76577;DHT22;65441;44.748;37.600;2023-10-31T08:01:13;29.24;29.93
76577;DHT22;65441;44.748;37.600;2023-10-31T08:03:42;29.41;31.90
76577;DHT22;65441;44.748;37.600;2023-10-31T08:06:11;29.89;28.97
76577;DHT22;65441;44.748;37.600;2023-10-31T08:08:39;29.95;31.29
76577;DHT22;65441;44.748;37.600;2023-10-31T08:11:08;30.11;26.07
76577;DHT22;65441;44.748;37.600;2023-10-31T08:13:36;30.22;24.62
76577;DHT22;65441;44.748;37.600;2023-10-31T08:16:06;30.31;24.56
76577;DHT22;65441;44.748;37.600;2023-10-31T08:18:37;30.12;24.11
76577;DHT22;65441;44.748;37.600;2023-10-31T08:21:08;30.04;29.03
76577;DHT22;65441;44.748;37.600;2023-10-31T08:23:38;30.19;27.27
76577;DHT22;65441;44.748;37.600;2023-10-31T08:26:07;29.90;23.47
76577;DHT22;65441;44.748;37.600;2023-10-31T08:28:39;29.48;23.93
76577;DHT22;65441;44.748;37.600;2023-10-31T08:31:07;28.85;23.82
76577;DHT22;65441;44.748;37.600;2023-10-31T08:33:35;28.86;26.43
76577;DHT22;65441;44.748;37.600;2023-10-31T08:36:08;29.09;26.16
76577;DHT22;65441;44.748;37.600;2023-10-31T08:38:38;29.32;24.07
76577;DHT22;65441;44.748;37.600;2023-10-31T08:41:06;29.33;25.49
76577;DHT22;65441;44.748;37.600;2023-10-31T08:43:39;29.22;24.34
76577;DHT22;65441;44.748;37.600;2023-10-31T08:46:07;29.66;27.68
76577;DHT22;65441;44.748;37.600;2023-10-31T08:48:36;29.78;24.37
76577;DHT22;65441;44.748;37.600;2023-10-31T08:51:05;29.43;26.45
76577;DHT22;65441;44.748;37.600;2023-10-31T08:53:35;29.64;25.39
76577;DHT22;65441;44.748;37.600;2023-10-31T08:56:04;29.82;26.76
76577;DHT22;65441;44.748;37.600;2023-10-31T08:58:32;30.00;25.49
76577;DHT22;65441;44.748;37.600;2023-10-31T09:01:00;29.95;25.39
76577;DHT22;65441;44.748;37.600;2023-10-31T09:03:29;29.77;25.98
76577;DHT22;65441;44.748;37.600;2023-10-31T09:05:59;29.51;25.10
76577;DHT22;65441;44.748;37.600;2023-10-31T09:08:28;29.73;25.57
76577;DHT22;65441;44.748;37.600;2023-10-31T09:10:58;29.65;25.63
76577;DHT22;65441;44.748;37.600;2023-10-31T09:13:26;29.98;25.15
76577;DHT22;65441;44.748;37.600;2023-10-31T09:15:55;29.79;24.33
76577;DHT22;65441;44.748;37.600;2023-10-31T09:18:25;29.76;26.54
76577;DHT22;65441;44.748;37.600;2023-10-31T09:20:57;29.98;26.01
76577;DHT22;65441;44.748;37.600;2023-10-31T09:23:25;29.83;24.73
76577;DHT22;65441;44.748;37.600;2023-10-31T09:25:53;29.30;26.27
76577;DHT22;65441;44.748;37.600;2023-10-31T09:28:23;28.76;27.56
76577;DHT22;65441;44.748;37.600;2023-10-31T09:30:51;29.38;29.36
76577;DHT22;65441;44.748;37.600;2023-10-31T09:33:19;29.62;26.70
76577;DHT22;65441;44.748;37.600;2023-10-31T09:35:50;29.63;25.50
76577;DHT22;65441;44.748;37.600;2023-10-31T09:38:18;29.72;24.97
76577;DHT22;65441;44.748;37.600;2023-10-31T09:40:47;29.76;27.60
76577;DHT22;65441;44.748;37.600;2023-10-31T09:43:15;29.70;24.74
76577;DHT22;65441;44.748;37.600;2023-10-31T09:45:46;29.45;25.15
76577;DHT22;65441;44.748;37.600;2023-10-31T09:48:15;29.30;25.19
76577;DHT22;65441;44.748;37.600;2023-10-31T09:50:45;29.51;28.42
76577;DHT22;65441;44.748;37.600;2023-10-31T09:53:16;29.56;26.20
76577;DHT22;65441;44.748;37.600;2023-10-31T09:55:45;29.65;24.62
76577;DHT22;65441;44.748;37.600;2023-10-31T09:58:15;29.80;27.61
76577;DHT22;65441;44.748;37.600;2023-10-31T10:00:47;29.96;24.51
76577;DHT22;65441;44.748;37.600;2023-10-31T10:03:16;29.82;24.85
76577;DHT22;65441;44.748;37.600;2023-10-31T10:05:50;29.61;26.88
76577;DHT22;65441;44.748;37.600;2023-10-31T10:08:20;29.70;28.48
76577;DHT22;65441;44.748;37.600;2023-10-31T10:10:48;29.59;25.79
76577;DHT22;65441;44.748;37.600;2023-10-31T10:13:19;29.27;24.57
76577;DHT22;65441;44.748;37.600;2023-10-31T10:15:50;28.46;25.23
76577;DHT22;65441;44.748;37.600;2023-10-31T10:18:27;28.02;26.62
76577;DHT22;65441;44.748;37.600;2023-10-31T10:20:56;28.13;26.01
76577;DHT22;65441;44.748;37.600;2023-10-31T10:23:25;27.42;26.99
76577;DHT22;65441;44.748;37.600;2023-10-31T10:25:55;27.56;28.81
76577;DHT22;65441;44.748;37.600;2023-10-31T10:28:23;27.93;27.83
76577;DHT22;65441;44.748;37.600;2023-10-31T10:30:54;28.13;26.56
76577;DHT22;65441;44.748;37.600;2023-10-31T10:33:22;28.20;26.01
76577;DHT22;65441;44.748;37.600;2023-10-31T10:35:50;28.20;25.37
76577;DHT22;65441;44.748;37.600;2023-10-31T10:38:19;28.15;26.27
76577;DHT22;65441;44.748;37.600;2023-10-31T10:40:48;28.33;25.78
76577;DHT22;65441;44.748;37.600;2023-10-31T10:43:20;28.25;25.16
76577;DHT22;65441;44.748;37.600;2023-10-31T10:45:55;28.35;26.45
76577;DHT22;65441;44.748;37.600;2023-10-31T10:48:24;28.38;27.01
76577;DHT22;65441;44.748;37.600;2023-10-31T10:50:59;28.37;25.33
76577;DHT22;65441;44.748;37.600;2023-10-31T10:53:30;28.14;26.36
76577;DHT22;65441;44.748;37.600;2023-10-31T10:56:04;28.33;26.04
76577;DHT22;65441;44.748;37.600;2023-10-31T10:58:40;28.49;26.99
76577;DHT22;65441;44.748;37.600;2023-10-31T11:01:11;28.55;25.52
76577;DHT22;65441;44.748;37.600;2023-10-31T11:03:40;28.54;25.05
76577;DHT22;65441;44.748;37.600;2023-10-31T11:06:09;28.30;25.88
76577;DHT22;65441;44.748;37.600;2023-10-31T11:08:37;28.32;25.93
76577;DHT22;65441;44.748;37.600;2023-10-31T11:11:06;28.28;26.71
76577;DHT22;65441;44.748;37.600;2023-10-31T11:13:34;28.20;27.77
76577;DHT22;65441;44.748;37.600;2023-10-31T11:16:07;28.23;26.39
76577;DHT22;65441;44.748;37.600;2023-10-31T11:18:39;28.08;26.49
76577;DHT22;65441;44.748;37.600;2023-10-31T11:21:07;28.08;25.85
76577;DHT22;65441;44.748;37.600;2023-10-31T11:23:36;27.86;27.34
76577;DHT22;65441;44.748;37.600;2023-10-31T11:26:07;28.13;27.94
76577;DHT22;65441;44.748;37.600;2023-10-31T11:28:36;28.13;27.77
76577;DHT22;65441;44.748;37.600;2023-10-31T11:31:04;28.25;27.00
76577;DHT22;65441;44.748;37.600;2023-10-31T11:33:40;28.21;26.01
76577;DHT22;65441;44.748;37.600;2023-10-31T11:36:10;28.03;26.61
76577;DHT22;65441;44.748;37.600;2023-10-31T11:38:39;27.90;26.23
76577;DHT22;65441;44.748;37.600;2023-10-31T11:41:07;27.84;28.19
76577;DHT22;65441;44.748;37.600;2023-10-31T11:43:50;27.79;26.51
76577;DHT22;65441;44.748;37.600;2023-10-31T11:46:19;27.60;27.18
76577;DHT22;65441;44.748;37.600;2023-10-31T11:48:51;27.59;26.54
76577;DHT22;65441;44.748;37.600;2023-10-31T11:51:19;27.44;26.49
76577;DHT22;65441;44.748;37.600;2023-10-31T11:53:48;27.51;27.86
76577;DHT22;65441;44.748;37.600;2023-10-31T11:56:20;27.44;28.90
76577;DHT22;65441;44.748;37.600;2023-10-31T11:59:03;27.54;28.07
76577;DHT22;65441;44.748;37.600;2023-10-31T12:01:33;27.58;27.63
76577;DHT22;65441;44.748;37.600;2023-10-31T12:04:03;27.58;28.68
76577;DHT22;65441;44.748;37.600;2023-10-31T12:06:31;27.57;28.30
76577;DHT22;65441;44.748;37.600;2023-10-31T12:09:00;27.54;27.46
76577;DHT22;65441;44.748;37.600;2023-10-31T12:11:28;27.54;29.21
76577;DHT22;65441;44.748;37.600;2023-10-31T12:13:57;27.59;31.28
76577;DHT22;65441;44.748;37.600;2023-10-31T12:16:28;27.46;28.39
76577;DHT22;65441;44.748;37.600;2023-10-31T12:18:57;27.36;27.97
76577;DHT22;65441;44.748;37.600;2023-10-31T12:21:37;27.01;27.89
76577;DHT22;65441;44.748;37.600;2023-10-31T12:24:09;26.90;28.63
76577;DHT22;65441;44.748;37.600;2023-10-31T12:26:37;27.08;33.09
76577;DHT22;65441;44.748;37.600;2023-10-31T12:29:13;27.08;30.39
76577;DHT22;65441;44.748;37.600;2023-10-31T12:31:48;26.95;29.72
76577;DHT22;65441;44.748;37.600;2023-10-31T12:34:17;26.87;28.53
76577;DHT22;65441;44.748;37.600;2023-10-31T12:36:48;26.75;27.65
76577;DHT22;65441;44.748;37.600;2023-10-31T12:39:20;26.66;28.80
76577;DHT22;65441;44.748;37.600;2023-10-31T12:41:49;26.61;29.86
76577;DHT22;65441;44.748;37.600;2023-10-31T12:44:22;26.61;29.11
76577;DHT22;65441;44.748;37.600;2023-10-31T12:46:51;26.60;29.56
76577;DHT22;65441;44.748;37.600;2023-10-31T12:49:20;26.49;32.38
76577;DHT22;65441;44.748;37.600;2023-10-31T12:52:00;26.48;29.88
76577;DHT22;65441;44.748;37.600;2023-10-31T12:54:28;26.40;29.29
76577;DHT22;65441;44.748;37.600;2023-10-31T12:56:59;26.35;30.96
76577;DHT22;65441;44.748;37.600;2023-10-31T12:59:28;26.33;30.93
76577;DHT22;65441;44.748;37.600;2023-10-31T13:01:56;26.17;29.91
76577;DHT22;65441;44.748;37.600;2023-10-31T13:04:25;26.02;33.58
76577;DHT22;65441;44.748;37.600;2023-10-31T13:06:59;26.06;32.44
76577;DHT22;65441;44.748;37.600;2023-10-31T13:09:31;26.07;35.08
76577;DHT22;65441;44.748;37.600;2023-10-31T13:12:01;25.97;34.83
76577;DHT22;65441;44.748;37.600;2023-10-31T13:14:29;25.87;37.04
76577;DHT22;65441;44.748;37.600;2023-10-31T13:16:58;25.72;35.56
76577;DHT22;65441;44.748;37.600;2023-10-31T13:19:26;25.67;35.59
76577;DHT22;65441;44.748;37.600;2023-10-31T13:21:54;25.52;38.83
76577;DHT22;65441;44.748;37.600;2023-10-31T13:24:24;25.42;37.91
76577;DHT22;65441;44.748;37.600;2023-10-31T13:26:52;25.40;36.85
76577;DHT22;65441;44.748;37.600;2023-10-31T13:29:20;25.23;37.19
76577;DHT22;65441;44.748;37.600;2023-10-31T13:31:51;25.23;37.17
76577;DHT22;65441;44.748;37.600;2023-10-31T13:34:19;25.15;35.58
76577;DHT22;65441;44.748;37.600;2023-10-31T13:36:47;25.08;37.66
76577;DHT22;65441;44.748;37.600;2023-10-31T13:39:15;25.00;36.53
76577;DHT22;65441;44.748;37.600;2023-10-31T13:41:46;24.86;35.98
76577;DHT22;65441;44.748;37.600;2023-10-31T13:44:14;24.79;36.69
76577;DHT22;65441;44.748;37.600;2023-10-31T13:46:42;24.64;36.50
76577;DHT22;65441;44.748;37.600;2023-10-31T13:49:10;24.60;36.21
76577;DHT22;65441;44.748;37.600;2023-10-31T13:51:39;24.50;34.58
76577;DHT22;65441;44.748;37.600;2023-10-31T13:54:07;24.33;37.74
76577;DHT22;65441;44.748;37.600;2023-10-31T13:56:35;24.14;35.97
76577;DHT22;65441;44.748;37.600;2023-10-31T13:59:05;23.98;35.15
76577;DHT22;65441;44.748;37.600;2023-10-31T14:01:33;23.84;35.46
76577;DHT22;65441;44.748;37.600;2023-10-31T14:04:01;23.67;34.63
76577;DHT22;65441;44.748;37.600;2023-10-31T14:06:29;23.50;34.75
76577;DHT22;65441;44.748;37.600;2023-10-31T14:08:59;23.37;35.37
76577;DHT22;65441;44.748;37.600;2023-10-31T14:11:31;23.29;42.58
76577;DHT22;65441;44.748;37.600;2023-10-31T14:13:59;23.23;46.78
76577;DHT22;65441;44.748;37.600;2023-10-31T14:16:34;23.14;43.24
76577;DHT22;65441;44.748;37.600;2023-10-31T14:19:02;23.20;45.81
76577;DHT22;65441;44.748;37.600;2023-10-31T14:21:30;22.96;42.68
76577;DHT22;65441;44.748;37.600;2023-10-31T14:23:59;22.90;41.48
76577;DHT22;65441;44.748;37.600;2023-10-31T14:26:27;22.48;44.13
76577;DHT22;65441;44.748;37.600;2023-10-31T14:28:56;22.19;50.79
76577;DHT22;65441;44.748;37.600;2023-10-31T14:31:24;21.96;51.19
76577;DHT22;65441;44.748;37.600;2023-10-31T14:33:53;21.84;49.81
76577;DHT22;65441;44.748;37.600;2023-10-31T14:36:22;21.67;46.25
76577;DHT22;65441;44.748;37.600;2023-10-31T14:38:50;21.49;51.09
76577;DHT22;65441;44.748;37.600;2023-10-31T14:41:18;21.61;46.83
76577;DHT22;65441;44.748;37.600;2023-10-31T14:43:47;21.59;48.71
76577;DHT22;65441;44.748;37.600;2023-10-31T14:46:14;21.74;47.41
76577;DHT22;65441;44.748;37.600;2023-10-31T14:48:43;21.38;46.12
76577;DHT22;65441;44.748;37.600;2023-10-31T14:51:13;21.34;47.99
76577;DHT22;65441;44.748;37.600;2023-10-31T14:53:41;21.39;49.50
76577;DHT22;65441;44.748;37.600;2023-10-31T14:56:09;21.03;48.05
76577;DHT22;65441;44.748;37.600;2023-10-31T14:58:37;20.90;47.31
76577;DHT22;65441;44.748;37.600;2023-10-31T15:01:06;21.01;48.53
76577;DHT22;65441;44.748;37.600;2023-10-31T15:03:34;21.03;51.39
76577;DHT22;65441;44.748;37.600;2023-10-31T15:06:02;20.86;45.97
76577;DHT22;65441;44.748;37.600;2023-10-31T15:08:32;20.91;50.87
76577;DHT22;65441;44.748;37.600;2023-10-31T15:11:00;20.62;49.24
76577;DHT22;65441;44.748;37.600;2023-10-31T15:13:28;20.59;51.33
76577;DHT22;65441;44.748;37.600;2023-10-31T15:15:56;20.03;47.90
76577;DHT22;65441;44.748;37.600;2023-10-31T15:18:25;19.96;48.96
76577;DHT22;65441;44.748;37.600;2023-10-31T15:20:53;19.67;51.95
76577;DHT22;65441;44.748;37.600;2023-10-31T15:23:23;19.37;51.63
76577;DHT22;65441;44.748;37.600;2023-10-31T15:25:54;19.32;52.59
76577;DHT22;65441;44.748;37.600;2023-10-31T15:28:23;19.11;52.62
76577;DHT22;65441;44.748;37.600;2023-10-31T15:30:52;18.99;53.22